Time;durP1;ratioP1;P1;durP2;ratioP2;P2;SDS_P1;SDS_P2;PMS_P1;PMS_P2;Temp;Humidity;BMP_temperature;BMP_pressure;BME280_temperature;BME280_humidity;BME280_pressure;Samples;Min_cycle;Max_cycle;Signal;HPM_P1;HPM_P2
2023/01/08 00:02:23;;;;;;;1.93;1.33;;;5.60;99.90;5.40;100053.00;;;;4902809;28;92910;-68
2023/01/08 00:04:48;;;;;;;2.20;2.00;;;5.60;99.90;5.50;100048.00;;;;4907183;28;96787;-65
2023/01/08 00:07:14;;;;;;;1.90;1.80;;;5.60;99.90;5.50;100040.00;;;;4901048;28;122754;-66
2023/01/08 00:09:40;;;;;;;2.77;2.13;;;6.10;99.90;5.50;100050.00;;;;4903821;28;110127;-67
2023/01/08 00:12:06;;;;;;;3.03;1.93;;;6.30;99.90;5.50;100042.00;;;;4901591;28;109883;-65
2023/01/08 00:14:31;;;;;;;2.73;1.87;;;6.70;99.90;5.50;100033.00;;;;4905175;28;99809;-66
2023/01/08 00:16:57;;;;;;;4.10;1.93;;;5.60;99.90;5.50;100032.00;;;;4903508;28;123363;-66
2023/01/08 00:19:22;;;;;;;4.63;2.37;;;5.60;99.90;5.50;100029.00;;;;4903988;28;122525;-65
2023/01/08 00:21:48;;;;;;;2.33;2.07;;;5.70;99.90;5.60;100024.00;;;;4904727;28;111230;-66
2023/01/08 00:24:14;;;;;;;3.43;2.10;;;5.70;99.90;5.60;100023.00;;;;4905889;28;108894;-66
2023/01/08 00:26:39;;;;;;;4.07;2.30;;;6.30;99.90;5.60;100021.00;;;;4907964;28;122531;-66
2023/01/08 00:29:05;;;;;;;3.90;2.47;;;6.50;99.90;5.70;100018.00;;;;4907934;28;122487;-67
2023/01/08 00:31:31;;;;;;;5.13;2.27;;;5.80;99.90;5.70;100015.00;;;;4908179;28;110952;-67
2023/01/08 00:33:56;;;;;;;3.60;2.03;;;5.80;99.90;5.80;100011.00;;;;4906829;28;109132;-67
2023/01/08 00:36:22;;;;;;;3.13;2.13;;;6.00;99.90;5.80;100009.00;;;;4909615;28;122557;-66
2023/01/08 00:38:48;;;;;;;3.37;2.37;;;6.50;99.90;5.80;100011.00;;;;4906000;28;113620;-66
2023/01/08 00:41:15;;;;;;;3.80;2.33;;;6.60;99.90;5.90;100007.00;;;;4904958;28;111694;-66
2023/01/08 00:43:40;;;;;;;2.33;1.93;;;5.90;99.90;5.90;100003.00;;;;4904397;28;95216;-67
2023/01/08 00:46:07;;;;;;;2.33;2.13;;;5.80;99.90;5.90;99996.00;;;;4910081;28;121783;-67
2023/01/08 00:48:37;;;;;;;3.07;2.43;;;6.00;99.90;5.80;99999.00;;;;4904543;28;107212;-67
2023/01/08 00:51:04;;;;;;;7.23;2.13;;;6.00;99.90;5.90;99995.00;;;;4906251;28;92971;-67
2023/01/08 00:53:30;;;;;;;3.43;2.43;;;6.00;99.90;5.90;99996.00;;;;4906697;28;93055;-67
2023/01/08 00:56:05;;;;;;;2.47;2.27;;;6.00;99.90;5.90;99990.00;;;;4905018;28;93548;-66
2023/01/08 00:58:31;;;;;;;3.90;2.20;;;6.00;99.90;5.90;99989.00;;;;4906797;28;96152;-66
2023/01/08 01:00:57;;;;;;;3.03;2.50;;;6.00;99.90;5.90;99984.00;;;;4907867;28;110420;-66
2023/01/08 01:03:23;;;;;;;4.10;2.30;;;6.10;99.90;6.00;99974.00;;;;4904924;28;109683;-67
2023/01/08 01:05:49;;;;;;;3.10;2.70;;;6.80;99.90;6.00;99966.00;;;;4906600;28;123420;-68
2023/01/08 01:08:15;;;;;;;2.87;1.60;;;6.90;99.90;6.00;99973.00;;;;4913864;28;94111;-66
2023/01/08 01:10:41;;;;;;;3.17;1.70;;;6.00;99.90;6.00;99974.00;;;;4909289;28;96591;-68
2023/01/08 01:13:07;;;;;;;3.53;2.13;;;6.10;99.90;6.00;99960.00;;;;4906955;28;108940;-67
2023/01/08 01:15:34;;;;;;;1.50;1.40;;;6.10;99.90;5.90;99961.00;;;;4887451;28;117000;-66
2023/01/08 01:17:59;;;;;;;5.63;2.83;;;6.00;99.90;5.90;99957.00;;;;4908552;28;93037;-66
2023/01/08 01:20:25;;;;;;;2.90;2.17;;;6.10;99.90;5.90;99961.00;;;;4904596;28;110519;-66
2023/01/08 01:22:51;;;;;;;3.20;2.33;;;6.00;99.90;5.80;99959.00;;;;4904881;28;108471;-66
2023/01/08 01:25:16;;;;;;;2.20;2.00;;;6.00;99.90;5.80;99951.00;;;;4905629;28;121735;-66
2023/01/08 01:27:42;;;;;;;2.97;1.73;;;5.90;99.90;5.70;99952.00;;;;4907198;28;120729;-66
2023/01/08 01:30:08;;;;;;;2.10;1.77;;;5.80;99.90;5.70;99957.00;;;;4905284;28;108512;-65
2023/01/08 01:32:34;;;;;;;2.60;2.10;;;5.90;99.90;5.70;99948.00;;;;4904518;28;98576;-66
2023/01/08 01:35:00;;;;;;;4.73;2.53;;;5.80;99.90;5.60;99948.00;;;;4903607;28;122257;-67
2023/01/08 01:37:26;;;;;;;2.43;1.83;;;5.90;99.90;5.70;99950.00;;;;4906789;28;109919;-67
2023/01/08 01:39:52;;;;;;;2.50;2.07;;;6.10;99.90;5.60;99938.00;;;;4903594;28;94002;-66
2023/01/08 01:45:15;;;;;;;5.17;2.20;;;6.40;99.90;5.60;99945.00;;;;4908158;28;92859;-66
2023/01/08 01:47:43;;;;;;;2.30;1.90;;;5.70;99.90;5.60;99935.00;;;;4906249;28;92974;-66
2023/01/08 01:50:19;;;;;;;3.50;1.97;;;5.80;99.90;5.50;99930.00;;;;4882326;28;93498;-66
2023/01/08 01:52:59;;;;;;;3.40;1.93;;;6.50;99.90;5.50;99930.00;;;;4881593;28;93351;-66
2023/01/08 01:55:26;;;;;;;3.37;2.13;;;5.70;99.90;5.40;99934.00;;;;4905180;28;115537;-66
2023/01/08 01:58:05;;;;;;;3.27;2.60;;;6.50;99.90;5.40;99925.00;;;;4905190;28;95705;-66
2023/01/08 02:00:33;;;;;;;3.97;2.40;;;5.60;99.90;5.40;99935.00;;;;4891818;28;93269;-67
2023/01/08 02:02:59;;;;;;;3.90;2.13;;;5.60;99.90;5.40;99928.00;;;;4907415;28;93249;-66
2023/01/08 02:05:37;;;;;;;2.17;1.80;;;5.50;99.90;5.40;99919.00;;;;4906842;28;122178;-66
2023/01/08 02:08:11;;;;;;;4.37;2.70;;;5.60;99.90;5.30;99906.00;;;;4902687;28;116100;-66
2023/01/08 02:10:50;;;;;;;2.90;2.40;;;5.60;99.90;5.30;99898.00;;;;4908553;28;93633;-67
2023/01/08 02:13:26;;;;;;;3.63;2.10;;;5.50;99.90;5.30;99890.00;;;;4905924;28;94341;-67
2023/01/08 02:16:31;;;;;;;2.20;1.93;;;6.00;99.90;5.30;99887.00;;;;4882036;28;92748;-66
2023/01/08 02:19:07;;;;;;;4.97;2.87;;;6.20;99.90;5.30;99891.00;;;;4844753;28;93137;-66
2023/01/08 02:21:52;;;;;;;3.90;2.00;;;5.50;99.90;5.20;99894.00;;;;4880589;28;92793;-66
2023/01/08 02:24:41;;;;;;;6.93;2.90;;;6.10;99.90;5.20;99903.00;;;;4882848;28;93970;-66
2023/01/08 02:27:08;;;;;;;3.50;2.27;;;5.40;99.90;5.20;99885.00;;;;4895232;28;93594;-66
2023/01/08 02:29:34;;;;;;;2.73;2.47;;;5.90;99.90;5.20;99875.00;;;;4908221;28;93436;-65
2023/01/08 02:32:01;;;;;;;3.83;2.47;;;5.30;99.90;5.20;99870.00;;;;4902491;28;110750;-66
2023/01/08 02:34:27;;;;;;;6.00;3.40;;;5.30;99.90;5.20;99868.00;;;;4901219;28;109490;-67
2023/01/08 02:36:55;;;;;;;2.53;2.13;;;5.30;99.90;5.20;99868.00;;;;4904426;28;93111;-67
2023/01/08 02:39:56;;;;;;;4.77;2.23;;;5.40;99.90;5.10;99872.00;;;;4889742;28;120283;-66
2023/01/08 02:42:45;;;;;;;3.70;2.17;;;5.40;99.90;5.20;99870.00;;;;4886528;28;93937;-66
2023/01/08 02:45:50;;;;;;;2.37;1.90;;;5.30;99.90;5.10;99878.00;;;;4886548;28;92989;-65
2023/01/08 02:48:30;;;;;;;2.77;2.20;;;5.30;99.90;5.20;99871.00;;;;4882730;28;114692;-68
2023/01/08 02:51:12;;;;;;;3.50;2.27;;;5.40;99.90;5.10;99873.00;;;;4882436;28;104538;-68
2023/01/08 02:53:45;;;;;;;3.23;2.40;;;5.30;99.90;5.10;99866.00;;;;4883865;28;92980;-67
2023/01/08 02:56:17;;;;;;;2.93;1.93;;;5.60;99.90;5.10;99860.00;;;;4886840;28;93009;-66
2023/01/08 02:58:46;;;;;;;3.10;2.20;;;5.30;99.90;5.10;99858.00;;;;4888035;28;109545;-66
2023/01/08 03:01:15;;;;;;;4.67;2.27;;;5.40;99.90;5.10;99859.00;;;;4882394;28;93757;-66
2023/01/08 03:03:46;;;;;;;2.50;2.30;;;5.30;99.90;5.10;99856.00;;;;4899725;28;92859;-68
2023/01/08 03:06:15;;;;;;;4.47;2.33;;;5.30;99.90;5.20;99845.00;;;;4884511;28;95722;-67
2023/01/08 03:08:45;;;;;;;3.03;2.30;;;6.10;99.90;5.20;99852.00;;;;4886565;28;114200;-65
2023/01/08 03:11:15;;;;;;;2.30;2.10;;;5.40;99.90;5.30;99837.00;;;;4884341;28;107034;-66
2023/01/08 03:13:55;;;;;;;3.63;2.70;;;5.90;99.90;5.30;99853.00;;;;4886387;28;94814;-68
2023/01/08 03:16:30;;;;;;;2.30;1.60;;;5.50;99.90;5.40;99847.00;;;;4884683;28;95741;-67
2023/01/08 03:19:07;;;;;;;2.07;1.60;;;5.50;99.90;5.50;99852.00;;;;4871912;28;95653;-67
2023/01/08 03:21:36;;;;;;;3.93;1.70;;;5.60;99.90;5.60;99850.00;;;;4885410;28;101507;-66
2023/01/08 03:24:02;;;;;;;3.80;2.40;;;5.60;99.90;5.60;99835.00;;;;4883555;28;99224;-66
2023/01/08 03:26:31;;;;;;;4.53;1.87;;;5.70;99.90;5.70;99832.00;;;;4885684;28;101346;-67
2023/01/08 03:28:56;;;;;;;9.60;2.80;;;5.70;99.90;5.70;99830.00;;;;4874402;28;122742;-66
2023/01/08 03:31:26;;;;;;;6.03;2.37;;;5.80;99.90;5.70;99830.00;;;;4883863;28;121751;-66
2023/01/08 03:33:54;;;;;;;2.00;1.80;;;5.80;99.90;5.80;99846.00;;;;4885693;28;92157;-67
2023/01/08 03:36:25;;;;;;;6.70;2.53;;;5.90;99.90;5.90;99848.00;;;;4887891;28;98526;-67
2023/01/08 03:38:58;;;;;;;3.80;2.20;;;6.00;99.90;6.00;99840.00;;;;4889721;28;93540;-67
2023/01/08 03:41:28;;;;;;;3.80;2.57;;;6.90;99.90;6.00;99844.00;;;;4885663;28;93934;-67
2023/01/08 03:43:54;;;;;;;5.27;2.73;;;6.70;99.90;6.10;99839.00;;;;4887333;28;93254;-67
2023/01/08 03:46:31;;;;;;;5.87;3.00;;;6.70;99.90;6.20;99836.00;;;;4885551;28;98274;-66
2023/01/08 03:48:58;;;;;;;3.83;2.10;;;7.00;99.90;6.20;99837.00;;;;4883850;28;113986;-66
2023/01/08 03:51:24;;;;;;;2.90;2.30;;;6.30;99.90;6.30;99832.00;;;;4883597;28;113168;-67
2023/01/08 03:53:53;;;;;;;5.47;2.60;;;6.40;99.90;6.30;99831.00;;;;4888373;28;101525;-66
2023/01/08 03:56:19;;;;;;;4.77;2.80;;;6.40;99.90;6.30;99830.00;;;;4888688;28;98587;-67
2023/01/08 03:58:45;;;;;;;3.83;2.83;;;6.40;99.90;6.30;99827.00;;;;4890032;28;122498;-67
2023/01/08 04:01:11;;;;;;;3.27;2.80;;;7.20;99.90;6.30;99820.00;;;;4888865;28;92862;-66
2023/01/08 04:03:37;;;;;;;3.30;2.77;;;6.40;99.90;6.30;99822.00;;;;4886180;28;110550;-66
2023/01/08 04:06:02;;;;;;;4.63;2.50;;;6.40;99.90;6.30;99822.00;;;;4886698;28;107938;-65
2023/01/08 04:08:28;;;;;;;3.10;2.80;;;7.10;99.90;6.30;99823.00;;;;4885795;28;119312;-66
2023/01/08 04:10:54;;;;;;;2.80;2.37;;;6.70;99.90;6.30;99817.00;;;;4886355;28;123246;-66
2023/01/08 04:13:19;;;;;;;3.30;2.63;;;6.50;99.90;6.40;99797.00;;;;4888086;28;103333;-66
2023/01/08 04:15:49;;;;;;;4.03;2.67;;;6.90;99.90;6.40;99799.00;;;;4888983;28;93038;-66
2023/01/08 04:18:16;;;;;;;3.07;2.50;;;7.00;99.90;6.40;99796.00;;;;4889752;28;93114;-66
2023/01/08 04:20:46;;;;;;;3.20;2.57;;;6.80;99.90;6.40;99791.00;;;;4888593;28;102292;-67
2023/01/08 04:23:13;;;;;;;4.10;2.67;;;6.50;99.90;6.50;99788.00;;;;4886952;28;92298;-66
2023/01/08 04:25:39;;;;;;;3.90;3.13;;;6.50;99.90;6.50;99781.00;;;;4888488;28;93057;-65
2023/01/08 04:28:04;;;;;;;2.87;2.37;;;6.60;99.90;6.50;99782.00;;;;4887909;28;93117;-67
2023/01/08 04:30:30;;;;;;;5.10;3.20;;;6.70;99.90;6.60;99787.00;;;;4887239;28;121918;-67
2023/01/08 04:32:56;;;;;;;4.03;3.10;;;6.60;99.90;6.60;99772.00;;;;4883771;28;109822;-65
2023/01/08 04:35:22;;;;;;;4.90;2.70;;;7.30;99.90;6.50;99764.00;;;;4889132;28;107943;-67
2023/01/08 04:37:48;;;;;;;4.20;2.63;;;6.70;99.90;6.50;99776.00;;;;4889225;28;122408;-67
2023/01/08 04:40:13;;;;;;;3.83;2.77;;;7.10;99.90;6.50;99782.00;;;;4888744;28;109803;-66
2023/01/08 04:42:39;;;;;;;5.40;3.27;;;6.60;99.90;6.40;99775.00;;;;4886102;28;109067;-66
2023/01/08 04:45:06;;;;;;;4.70;3.20;;;6.60;99.90;6.40;99777.00;;;;4905123;28;109108;-66
2023/01/08 04:47:32;;;;;;;4.40;2.63;;;6.60;99.90;6.40;99795.00;;;;4903073;28;113023;-67
2023/01/08 04:49:58;;;;;;;7.03;3.97;;;6.50;99.90;6.40;99788.00;;;;4903499;28;121886;-68
2023/01/08 04:52:23;;;;;;;4.43;3.60;;;7.10;99.90;6.30;99781.00;;;;4903461;28;110195;-66
2023/01/08 04:54:49;;;;;;;4.57;3.13;;;6.50;99.90;6.30;99779.00;;;;4902975;28;107678;-66
2023/01/08 04:57:15;;;;;;;5.57;3.53;;;7.10;99.90;6.30;99774.00;;;;4904186;28;121995;-66
2023/01/08 04:59:41;;;;;;;3.60;3.30;;;6.50;99.90;6.40;99777.00;;;;4905070;28;124820;-66
2023/01/08 05:02:06;;;;;;;4.67;3.47;;;6.40;99.90;6.40;99772.00;;;;4907140;28;110712;-65
2023/01/08 05:04:32;;;;;;;4.13;2.77;;;6.80;99.90;6.40;99774.00;;;;4903109;28;109565;-67
2023/01/08 05:06:58;;;;;;;3.90;2.83;;;7.10;99.90;6.40;99772.00;;;;4904138;28;119032;-66
2023/01/08 05:09:23;;;;;;;3.97;2.80;;;6.80;99.90;6.40;99773.00;;;;4902805;28;123176;-68
2023/01/08 05:11:49;;;;;;;3.37;2.23;;;6.60;99.90;6.50;99772.00;;;;4903860;28;110465;-66
2023/01/08 05:14:15;;;;;;;6.63;4.70;;;6.60;99.90;6.50;99771.00;;;;4901220;28;108546;-68
2023/01/08 05:16:40;;;;;;;4.87;3.63;;;6.60;99.90;6.50;99767.00;;;;4903740;28;92941;-66
2023/01/08 05:19:06;;;;;;;4.50;3.80;;;6.60;99.90;6.50;99782.00;;;;4905254;28;94308;-68
2023/01/08 05:21:32;;;;;;;3.80;3.13;;;6.70;99.90;6.50;99768.00;;;;4885641;28;92970;-66
2023/01/08 05:23:57;;;;;;;4.77;3.40;;;6.60;99.90;6.50;99761.00;;;;4905016;28;94114;-66
2023/01/08 05:26:23;;;;;;;3.57;3.20;;;6.90;99.90;6.50;99775.00;;;;4872749;28;122479;-66
2023/01/08 05:28:49;;;;;;;5.20;3.83;;;6.60;99.90;6.50;99764.00;;;;4909041;28;120045;-67
2023/01/08 05:31:15;;;;;;;8.07;3.00;;;6.80;99.90;6.50;99768.00;;;;4903976;28;110585;-66
2023/01/08 05:33:41;;;;;;;4.30;3.30;;;7.00;99.90;6.50;99771.00;;;;4918478;28;92999;-67
2023/01/08 05:36:09;;;;;;;6.73;4.07;;;6.60;99.90;6.50;99771.00;;;;4909470;28;93325;-67
2023/01/08 05:38:35;;;;;;;3.50;2.93;;;6.60;99.90;6.50;99777.00;;;;4907026;28;115481;-67
2023/01/08 05:41:00;;;;;;;5.33;3.97;;;6.60;99.90;6.50;99770.00;;;;4907668;28;110958;-67
2023/01/08 05:43:26;;;;;;;4.87;4.00;;;7.00;99.90;6.50;99771.00;;;;4905799;28;107093;-66
2023/01/08 05:45:52;;;;;;;4.80;3.30;;;6.70;99.90;6.50;99762.00;;;;4905492;28;94637;-66
2023/01/08 05:48:17;;;;;;;6.13;4.47;;;6.60;99.90;6.50;99761.00;;;;4904877;28;103921;-66
2023/01/08 05:50:43;;;;;;;5.60;3.73;;;6.70;99.90;6.50;99766.00;;;;4906354;28;110589;-66
2023/01/08 05:53:09;;;;;;;3.60;3.20;;;6.60;99.90;6.50;99757.00;;;;4908327;28;93052;-66
2023/01/08 05:55:35;;;;;;;7.27;3.77;;;6.60;99.90;6.50;99768.00;;;;4908742;28;111587;-66
2023/01/08 05:58:03;;;;;;;8.13;4.40;;;6.60;99.90;6.50;99768.00;;;;4903002;28;122326;-66
2023/01/08 06:00:30;;;;;;;6.53;3.93;;;7.20;99.90;6.60;99749.00;;;;4905252;28;97150;-66
2023/01/08 06:02:55;;;;;;;5.70;4.07;;;6.90;99.90;6.60;99759.00;;;;4902766;28;92907;-67
2023/01/08 06:05:21;;;;;;;6.87;4.13;;;7.00;99.90;6.70;99759.00;;;;4902429;28;121274;-66
2023/01/08 06:07:46;;;;;;;7.97;4.30;;;7.30;99.90;6.70;99753.00;;;;4901768;28;122858;-66
2023/01/08 06:10:12;;;;;;;5.37;3.47;;;6.90;99.90;6.70;99750.00;;;;4883863;28;110691;-65
2023/01/08 06:12:38;;;;;;;6.30;4.47;;;6.80;99.90;6.80;99758.00;;;;4905239;28;94207;-66
2023/01/08 06:15:05;;;;;;;8.67;4.20;;;7.20;99.90;6.80;99762.00;;;;4905195;28;122080;-66
2023/01/08 06:17:31;;;;;;;4.90;4.33;;;7.00;99.90;6.90;99768.00;;;;4904903;28;92964;-67
2023/01/08 06:19:57;;;;;;;4.37;3.83;;;7.60;99.90;6.90;99752.00;;;;4906327;28;93034;-66
2023/01/08 06:22:22;;;;;;;7.67;4.20;;;7.10;99.90;7.00;99753.00;;;;4885425;28;99490;-66
2023/01/08 06:24:48;;;;;;;6.67;5.07;;;7.00;99.90;7.00;99749.00;;;;4907278;28;121989;-66
2023/01/08 06:27:13;;;;;;;8.33;5.80;;;7.10;99.90;7.00;99754.00;;;;4887329;28;120733;-67
2023/01/08 06:29:39;;;;;;;9.67;4.77;;;7.10;99.90;7.00;99751.00;;;;4905519;28;110722;-67
2023/01/08 06:32:05;;;;;;;5.27;4.77;;;7.10;99.90;7.00;99749.00;;;;4905239;28;108174;-65
2023/01/08 06:34:30;;;;;;;6.93;4.70;;;7.10;99.90;7.00;99743.00;;;;4903247;28;122967;-66
2023/01/08 06:36:56;;;;;;;6.80;4.63;;;7.20;99.90;6.90;99743.00;;;;4904197;28;123446;-66
2023/01/08 06:39:22;;;;;;;10.07;4.83;;;7.10;99.90;6.90;99740.00;;;;4904348;28;109194;-66
2023/01/08 06:41:47;;;;;;;6.87;4.73;;;7.10;99.90;6.90;99740.00;;;;4901524;28;92924;-66
2023/01/08 06:44:13;;;;;;;8.57;5.40;;;7.00;99.90;6.80;99743.00;;;;4901750;28;123132;-66
2023/01/08 06:46:39;;;;;;;7.70;4.60;;;7.50;99.90;6.80;99752.00;;;;4905168;28;123291;-66
2023/01/08 06:49:08;;;;;;;6.97;4.87;;;7.10;99.90;6.80;99758.00;;;;4902413;28;92098;-66
2023/01/08 06:51:35;;;;;;;7.17;4.40;;;6.90;99.90;6.80;99755.00;;;;4905237;28;97882;-66
2023/01/08 06:54:02;;;;;;;8.10;4.10;;;6.90;99.90;6.70;99759.00;;;;4906348;28;92837;-68
2023/01/08 06:56:28;;;;;;;5.30;3.70;;;7.30;99.90;6.70;99758.00;;;;4904420;28;121837;-67
2023/01/08 06:58:54;;;;;;;4.77;3.63;;;6.80;99.90;6.70;99764.00;;;;4906278;28;110842;-68
2023/01/08 07:01:21;;;;;;;5.20;4.27;;;7.50;99.90;6.60;99754.00;;;;4902520;28;108860;-66
2023/01/08 07:03:47;;;;;;;4.77;3.73;;;7.50;99.90;6.60;99756.00;;;;4902489;28;94720;-67
2023/01/08 07:06:19;;;;;;;6.20;4.33;;;6.80;99.90;6.70;99763.00;;;;4902952;28;119474;-66
2023/01/08 07:08:45;;;;;;;8.73;4.97;;;7.00;99.90;6.70;99755.00;;;;4890470;28;92873;-67
2023/01/08 07:11:11;;;;;;;4.97;4.50;;;6.80;99.90;6.70;99760.00;;;;4887659;28;92907;-67
2023/01/08 07:13:37;;;;;;;5.97;3.70;;;6.80;99.90;6.70;99766.00;;;;4905674;28;93083;-66
2023/01/08 07:16:11;;;;;;;5.87;4.33;;;6.80;99.90;6.70;99761.00;;;;4890489;28;120365;-67
2023/01/08 07:18:37;;;;;;;5.67;4.03;;;6.80;99.90;6.70;99775.00;;;;4901435;28;99936;-66
2023/01/08 07:21:05;;;;;;;9.20;4.13;;;6.80;99.90;6.70;99764.00;;;;4901128;28;107378;-67
2023/01/08 07:23:32;;;;;;;4.50;3.53;;;6.80;99.90;6.70;99768.00;;;;4900644;28;93842;-66
2023/01/08 07:26:02;;;;;;;7.07;5.37;;;7.40;99.90;6.80;99783.00;;;;4900650;28;116419;-67
2023/01/08 07:28:28;;;;;;;9.13;5.57;;;7.00;99.90;6.80;99782.00;;;;4904904;28;92907;-66
2023/01/08 07:30:54;;;;;;;21.73;11.37;;;6.90;99.90;6.80;99787.00;;;;4900167;28;110040;-66
2023/01/08 07:33:20;;;;;;;8.97;5.40;;;6.90;99.90;6.90;99772.00;;;;4900338;28;112843;-66
2023/01/08 07:35:53;;;;;;;6.23;4.73;;;7.00;99.90;6.90;99774.00;;;;4903755;28;110081;-67
2023/01/08 07:38:19;;;;;;;5.77;4.67;;;7.30;99.90;6.90;99771.00;;;;4902745;28;97940;-66
2023/01/08 07:40:45;;;;;;;7.63;4.60;;;7.80;99.90;7.00;99767.00;;;;4904805;28;93018;-67
2023/01/08 07:43:13;;;;;;;5.93;5.30;;;7.00;99.90;7.00;99775.00;;;;4902498;28;108478;-66
2023/01/08 07:45:40;;;;;;;6.80;5.17;;;7.30;99.90;7.00;99759.00;;;;4900088;28;93788;-66
2023/01/08 07:48:06;;;;;;;7.90;5.50;;;7.10;99.90;7.00;99774.00;;;;4904340;28;92961;-66
2023/01/08 07:50:32;;;;;;;5.90;4.03;;;7.10;99.90;7.10;99772.00;;;;4902588;28;93524;-67
2023/01/08 07:53:00;;;;;;;7.13;5.00;;;7.20;99.90;7.10;99764.00;;;;4905260;28;93156;-68
2023/01/08 07:55:27;;;;;;;7.87;5.43;;;7.70;99.90;7.10;99773.00;;;;4906507;28;100089;-66
2023/01/08 07:57:52;;;;;;;6.07;4.97;;;7.20;99.90;7.20;99778.00;;;;4905692;28;92809;-66
2023/01/08 08:00:18;;;;;;;8.70;5.67;;;7.20;99.90;7.20;99778.00;;;;4902342;28;94470;-66
2023/01/08 08:02:44;;;;;;;8.90;5.93;;;7.30;99.90;7.20;99778.00;;;;4898670;28;92539;-66
2023/01/08 08:05:10;;;;;;;6.10;4.83;;;7.30;99.90;7.20;99778.00;;;;4903068;28;123047;-65
2023/01/08 08:07:36;;;;;;;8.50;6.73;;;7.60;99.90;7.20;99771.00;;;;4899306;28;110336;-67
2023/01/08 08:10:03;;;;;;;8.57;5.43;;;7.40;99.90;7.20;99783.00;;;;4900656;28;108328;-65
2023/01/08 08:12:29;;;;;;;10.00;4.83;;;7.40;99.90;7.30;99775.00;;;;4901191;28;114142;-67
2023/01/08 08:14:55;;;;;;;9.73;5.87;;;7.40;99.90;7.30;99772.00;;;;4882282;28;94024;-65
2023/01/08 08:17:21;;;;;;;8.80;5.27;;;7.40;99.90;7.30;99764.00;;;;4901420;28;110724;-67
2023/01/08 08:19:46;;;;;;;7.57;4.93;;;7.40;99.90;7.40;99762.00;;;;4905655;28;98419;-65
2023/01/08 08:22:12;;;;;;;6.10;5.10;;;7.70;99.90;7.40;99764.00;;;;4897936;28;101535;-66
2023/01/08 08:24:38;;;;;;;6.57;4.93;;;7.40;99.90;7.40;99756.00;;;;4900843;28;122443;-65
2023/01/08 08:27:04;;;;;;;5.77;4.03;;;7.50;99.90;7.40;99749.00;;;;4903074;28;111643;-66
2023/01/08 08:29:29;;;;;;;8.83;5.23;;;7.90;99.90;7.50;99747.00;;;;4904469;28;93626;-65
2023/01/08 08:31:55;;;;;;;7.40;4.80;;;7.50;99.90;7.50;99738.00;;;;4902267;28;121840;-67
2023/01/08 08:34:21;;;;;;;7.97;4.50;;;7.60;99.90;7.60;99738.00;;;;4899038;28;122543;-65
2023/01/08 08:36:48;;;;;;;5.73;4.33;;;7.70;99.90;7.60;99743.00;;;;4902516;28;93982;-66
2023/01/08 08:39:14;;;;;;;6.63;4.83;;;8.20;99.90;7.70;99748.00;;;;4903810;28;97713;-64
2023/01/08 08:41:41;;;;;;;10.13;5.03;;;7.70;99.90;7.70;99748.00;;;;4903176;28;120915;-65
2023/01/08 08:44:07;;;;;;;6.80;4.33;;;7.70;99.90;7.80;99748.00;;;;4905656;28;93407;-67
2023/01/08 08:46:33;;;;;;;6.53;3.80;;;7.80;99.90;7.90;99759.00;;;;4902736;28;93008;-66
2023/01/08 08:48:59;;;;;;;9.13;5.03;;;7.90;99.90;8.00;99743.00;;;;4907710;28;109323;-66
2023/01/08 08:51:25;;;;;;;5.67;4.47;;;8.10;99.90;8.10;99727.00;;;;4905850;28;112366;-67
2023/01/08 08:53:51;;;;;;;7.17;4.67;;;8.20;99.90;8.20;99731.00;;;;4867487;28;100383;-65
2023/01/08 08:56:17;;;;;;;6.87;4.47;;;8.20;99.90;8.30;99722.00;;;;4903836;28;109497;-65
2023/01/08 08:58:44;;;;;;;6.93;4.27;;;8.30;99.90;8.40;99723.00;;;;4903020;28;94092;-66
2023/01/08 09:01:10;;;;;;;8.63;4.73;;;8.40;99.90;8.50;99721.00;;;;4902823;28;94214;-66
2023/01/08 09:03:36;;;;;;;4.90;4.10;;;8.60;99.90;8.60;99720.00;;;;4901582;28;122660;-64
2023/01/08 09:06:01;;;;;;;4.97;3.40;;;8.60;99.90;8.60;99705.00;;;;4872415;28;92941;-65
2023/01/08 09:08:27;;;;;;;4.37;3.60;;;8.70;99.90;8.60;99723.00;;;;4885478;28;109156;-66
2023/01/08 09:10:52;;;;;;;4.43;3.67;;;8.70;99.90;8.70;99739.00;;;;4901025;28;122746;-65
2023/01/08 09:13:19;;;;;;;9.20;6.50;;;8.70;99.90;8.70;99724.00;;;;4901691;28;121131;-67
2023/01/08 09:15:44;;;;;;;8.03;3.33;;;8.70;99.90;8.60;99736.00;;;;4902118;28;109772;-66
2023/01/08 09:18:10;;;;;;;7.10;3.70;;;8.70;99.90;8.70;99730.00;;;;4905307;28;93073;-65
2023/01/08 09:20:36;;;;;;;9.67;4.97;;;8.80;99.90;8.70;99733.00;;;;4902416;28;100702;-65
2023/01/08 09:23:02;;;;;;;6.43;3.77;;;8.80;99.90;8.70;99730.00;;;;4900577;28;93956;-65
2023/01/08 09:25:28;;;;;;;4.97;4.00;;;8.70;99.90;8.60;99733.00;;;;4905398;28;92858;-65
2023/01/08 09:28:10;;;;;;;6.73;3.90;;;8.70;99.90;8.60;99732.00;;;;4901590;28;99421;-65
2023/01/08 09:30:38;;;;;;;9.07;3.87;;;8.70;99.90;8.60;99732.00;;;;4888643;28;93876;-65
2023/01/08 09:33:04;;;;;;;7.77;5.50;;;8.70;99.90;8.70;99725.00;;;;4903953;28;105154;-65
2023/01/08 09:35:31;;;;;;;5.20;4.10;;;8.70;99.90;8.70;99724.00;;;;4902980;28;93230;-65
2023/01/08 09:37:57;;;;;;;5.27;3.50;;;8.70;99.90;8.70;99715.00;;;;4903755;28;92959;-67
2023/01/08 09:40:31;;;;;;;3.67;3.37;;;8.70;99.90;8.70;99713.00;;;;4905353;28;93301;-66
2023/01/08 09:43:00;;;;;;;7.20;3.13;;;8.80;99.90;8.70;99710.00;;;;4879723;28;93037;-64
2023/01/08 09:45:31;;;;;;;3.63;3.00;;;8.80;99.90;8.70;99712.00;;;;4903242;28;92898;-67
2023/01/08 09:48:02;;;;;;;7.83;4.03;;;8.80;99.90;8.70;99707.00;;;;4887204;28;96561;-66
2023/01/08 09:50:30;;;;;;;6.70;4.23;;;8.80;99.90;8.80;99707.00;;;;4885790;28;115521;-65
2023/01/08 09:52:56;;;;;;;4.80;3.97;;;8.80;99.90;8.80;99705.00;;;;4885559;28;93404;-65
2023/01/08 09:55:22;;;;;;;7.67;4.97;;;8.80;99.90;8.80;99699.00;;;;4903901;28;93435;-66
2023/01/08 09:57:48;;;;;;;6.70;4.10;;;8.90;99.90;8.80;99706.00;;;;4901395;28;92685;-66
2023/01/08 10:00:18;;;;;;;3.53;2.40;;;9.10;99.90;8.80;99706.00;;;;4912839;28;122983;-66
2023/01/08 10:02:44;;;;;;;4.30;3.43;;;8.90;99.90;8.90;99699.00;;;;4890254;28;108548;-67
2023/01/08 10:05:17;;;;;;;4.47;3.07;;;8.90;99.90;8.90;99694.00;;;;4907379;28;111479;-66
2023/01/08 10:07:44;;;;;;;5.17;3.60;;;8.90;99.90;8.90;99696.00;;;;4903127;28;92873;-66
2023/01/08 10:10:21;;;;;;;3.80;3.00;;;9.00;99.90;8.90;99693.00;;;;4906201;28;116883;-66
2023/01/08 10:12:48;;;;;;;4.67;3.53;;;9.00;99.90;8.90;99687.00;;;;4902049;28;108985;-67
2023/01/08 10:15:17;;;;;;;3.80;2.87;;;9.00;99.90;8.90;99690.00;;;;4886054;28;94942;-65
2023/01/08 10:17:48;;;;;;;8.40;5.17;;;9.00;99.90;8.90;99685.00;;;;4904147;28;92871;-66
2023/01/08 10:20:18;;;;;;;4.63;3.93;;;8.90;99.90;8.90;99679.00;;;;4887027;28;93325;-66
2023/01/08 10:22:46;;;;;;;7.90;3.33;;;9.50;99.90;9.00;99682.00;;;;4903248;28;93236;-66
2023/01/08 10:25:20;;;;;;;5.37;2.87;;;9.00;99.90;9.00;99687.00;;;;4903726;28;92906;-65
2023/01/08 10:27:47;;;;;;;4.70;3.43;;;9.00;99.90;9.00;99687.00;;;;4903805;28;95269;-68
2023/01/08 10:30:31;;;;;;;5.23;3.63;;;9.00;99.90;8.90;99689.00;;;;4903032;28;93581;-66
2023/01/08 10:33:18;;;;;;;5.23;2.93;;;9.00;99.90;8.90;99693.00;;;;4899044;28;121238;-66
2023/01/08 10:35:53;;;;;;;3.73;3.33;;;9.00;99.90;8.90;99690.00;;;;4883514;28;100440;-66
2023/01/08 10:38:33;;;;;;;4.73;3.03;;;9.00;99.90;8.90;99677.00;;;;4902212;28;102655;-66
2023/01/08 10:41:05;;;;;;;4.97;3.27;;;9.00;99.90;8.90;99665.00;;;;4887465;28;93319;-65
2023/01/08 10:43:45;;;;;;;4.60;3.10;;;9.00;99.90;8.90;99666.00;;;;4886730;28;114410;-67
2023/01/08 10:46:22;;;;;;;5.67;4.10;;;8.90;99.90;8.90;99657.00;;;;4879785;28;101059;-66
2023/01/08 10:48:53;;;;;;;7.57;3.50;;;9.00;99.90;8.90;99652.00;;;;4901589;28;97051;-66
2023/01/08 10:51:29;;;;;;;7.33;3.53;;;9.00;99.90;8.90;99656.00;;;;4901207;28;114776;-66
2023/01/08 10:53:59;;;;;;;4.83;3.50;;;9.50;99.90;8.90;99643.00;;;;4901344;28;93031;-66
2023/01/08 10:56:27;;;;;;;5.00;4.07;;;9.10;99.90;8.90;99666.00;;;;4904998;28;92304;-66
2023/01/08 10:58:54;;;;;;;9.20;4.17;;;9.00;99.90;8.90;99662.00;;;;4887526;28;93173;-66
2023/01/08 11:01:23;;;;;;;5.27;3.90;;;9.00;99.90;8.90;99639.00;;;;4900717;28;93324;-67
2023/01/08 11:03:52;;;;;;;4.07;3.07;;;8.90;99.90;8.90;99647.00;;;;4902450;28;93978;-67
2023/01/08 11:06:30;;;;;;;5.70;3.50;;;9.00;99.90;8.80;99648.00;;;;4886332;28;95229;-66
2023/01/08 11:09:03;;;;;;;5.23;3.83;;;8.90;99.90;8.90;99640.00;;;;4903446;28;93151;-66
2023/01/08 11:11:35;;;;;;;5.30;3.40;;;8.90;99.90;8.80;99637.00;;;;4870285;28;103575;-67
2023/01/08 11:14:05;;;;;;;5.03;3.63;;;8.90;99.90;8.80;99627.00;;;;4884535;28;102662;-67